createdAt,value
2022-10-05T00:00:00.744Z,15.58
2022-10-05T00:02:33.378Z,15.60
2022-10-05T00:05:02.660Z,15.54
2022-10-05T00:07:33.466Z,15.36
2022-10-05T00:10:15.065Z,15.45
2022-10-05T00:12:46.740Z,15.57
2022-10-05T00:15:18.082Z,15.63
2022-10-05T00:17:46.915Z,15.36
2022-10-05T00:20:21.295Z,15.47
2022-10-05T00:22:53.020Z,15.37
2022-10-05T00:25:23.069Z,15.52
2022-10-05T00:27:56.822Z,15.45
2022-10-05T00:30:27.790Z,15.46
2022-10-05T00:32:59.697Z,15.52
2022-10-05T00:35:30.848Z,15.62
2022-10-05T00:37:59.536Z,15.38
2022-10-05T00:40:38.070Z,15.27
2022-10-05T00:43:25.242Z,15.35
2022-10-05T00:45:59.159Z,15.35
2022-10-05T00:48:37.213Z,15.48
2022-10-05T00:51:22.572Z,15.38
2022-10-05T00:54:03.747Z,15.38
2022-10-05T00:56:50.204Z,15.49
2022-10-05T00:59:34.936Z,15.38
2022-10-05T01:02:13.434Z,15.57
2022-10-05T01:04:49.709Z,15.29
2022-10-05T01:07:28.890Z,15.30
2022-10-05T01:10:05.439Z,15.56
2022-10-05T01:12:41.669Z,15.23
2022-10-05T01:15:16.718Z,15.40
2022-10-05T01:17:54.363Z,15.39
2022-10-05T01:20:37.216Z,15.43
2022-10-05T01:23:32.636Z,15.29
2022-10-05T01:26:18.602Z,15.38
2022-10-05T01:28:54.693Z,15.33
2022-10-05T01:31:30.064Z,15.06
2022-10-05T01:34:11.508Z,15.30
2022-10-05T01:36:46.982Z,15.27
2022-10-05T01:39:24.378Z,15.36
2022-10-05T01:42:03.152Z,15.39
2022-10-05T01:44:42.262Z,15.32
2022-10-05T01:47:22.639Z,15.29
2022-10-05T01:50:01.236Z,15.25
2022-10-05T01:52:40.821Z,15.43
2022-10-05T01:55:18.898Z,15.35
2022-10-05T01:58:09.367Z,15.39
2022-10-05T02:00:46.861Z,15.27
2022-10-05T02:03:21.717Z,15.03
2022-10-05T02:05:55.580Z,15.21
2022-10-05T02:08:30.901Z,14.90
2022-10-05T02:11:04.744Z,14.92
2022-10-05T02:13:39.574Z,14.85
2022-10-05T02:16:15.736Z,15.19
2022-10-05T02:18:51.549Z,14.95
2022-10-05T02:21:22.542Z,15.29
2022-10-05T02:23:56.693Z,15.08
2022-10-05T02:26:28.881Z,14.81
2022-10-05T02:29:01.175Z,14.69
2022-10-05T02:31:37.366Z,15.08
2022-10-05T02:34:26.133Z,14.95
2022-10-05T02:37:15.856Z,14.95
2022-10-05T02:39:54.331Z,15.08
2022-10-05T02:42:30.010Z,15.02
2022-10-05T02:45:12.331Z,14.92
2022-10-05T02:47:51.036Z,14.69
2022-10-05T02:50:27.232Z,14.82
2022-10-05T02:53:10.830Z,14.98
2022-10-05T02:55:48.233Z,14.94
2022-10-05T02:58:23.750Z,14.79
2022-10-05T03:01:01.229Z,14.85
2022-10-05T03:03:38.813Z,14.83
2022-10-05T03:06:18.351Z,14.84
2022-10-05T03:08:56.258Z,14.88
2022-10-05T03:11:36.724Z,14.77
2022-10-05T03:14:13.536Z,15.01
2022-10-05T03:16:56.088Z,14.82
2022-10-05T03:19:44.218Z,14.97
2022-10-05T03:22:23.185Z,15.05
2022-10-05T03:25:15.774Z,14.90
2022-10-05T03:27:53.835Z,14.98
2022-10-05T03:30:26.617Z,14.90
2022-10-05T03:33:04.899Z,14.86
2022-10-05T03:35:49.327Z,15.00
2022-10-05T03:38:28.990Z,15.09
2022-10-05T03:41:05.687Z,14.97
2022-10-05T03:43:57.233Z,14.94
2022-10-05T03:46:40.145Z,14.93
2022-10-05T03:49:16.865Z,14.86
2022-10-05T03:51:51.342Z,14.70
2022-10-05T03:54:24.838Z,14.85
2022-10-05T03:56:56.845Z,15.01
2022-10-05T03:59:32.727Z,14.86
2022-10-05T04:02:07.118Z,14.94
2022-10-05T04:04:43.597Z,14.86
2022-10-05T04:07:29.585Z,14.94
2022-10-05T04:10:00.893Z,15.09
2022-10-05T04:12:36.512Z,14.98
2022-10-05T04:15:18.876Z,15.05
2022-10-05T04:17:53.537Z,14.89
2022-10-05T04:20:28.506Z,14.89
2022-10-05T04:23:12.458Z,14.97
2022-10-05T04:25:48.985Z,14.92
2022-10-05T04:28:32.223Z,15.02
2022-10-05T04:31:05.854Z,14.98
2022-10-05T04:33:35.439Z,14.86
2022-10-05T04:36:19.950Z,15.03
2022-10-05T04:39:03.799Z,14.82
2022-10-05T04:41:49.611Z,14.93
2022-10-05T04:44:36.591Z,14.90
2022-10-05T04:47:21.959Z,14.80
2022-10-05T04:50:23.341Z,14.84
2022-10-05T04:53:18.670Z,14.74
2022-10-05T04:55:56.861Z,14.72
2022-10-05T04:58:42.256Z,14.72
2022-10-05T05:01:29.005Z,14.61
2022-10-05T05:04:29.843Z,14.77
2022-10-05T05:07:13.476Z,14.73
2022-10-05T05:10:20.045Z,14.93
2022-10-05T05:13:03.340Z,14.81
2022-10-05T05:15:38.870Z,14.93
2022-10-05T05:18:25.382Z,14.85
2022-10-05T05:21:04.078Z,14.82
2022-10-05T05:23:40.965Z,14.84
2022-10-05T05:26:18.158Z,14.72
2022-10-05T05:28:55.720Z,14.80
2022-10-05T05:31:36.161Z,14.84
2022-10-05T05:34:17.925Z,14.75
2022-10-05T05:36:56.924Z,14.67
2022-10-05T05:39:43.032Z,14.50
2022-10-05T05:42:22.419Z,14.50
2022-10-05T05:44:59.074Z,14.78
2022-10-05T05:47:37.856Z,14.56
2022-10-05T05:50:27.937Z,13.94
2022-10-05T05:53:03.050Z,14.66
2022-10-05T05:55:36.491Z,14.62
2022-10-05T05:58:14.782Z,14.69
2022-10-05T06:00:48.468Z,14.62
2022-10-05T06:03:27.351Z,14.49
2022-10-05T06:06:00.888Z,14.66
2022-10-05T06:08:37.811Z,14.75
2022-10-05T06:11:21.123Z,14.74
2022-10-05T06:13:50.988Z,14.89
2022-10-05T06:16:30.538Z,14.83
2022-10-05T06:19:06.573Z,14.87
2022-10-05T06:21:40.910Z,14.73
2022-10-05T06:24:17.617Z,14.79
2022-10-05T06:27:20.475Z,14.81
2022-10-05T06:30:03.962Z,14.71
2022-10-05T06:32:46.630Z,14.59
2022-10-05T06:35:24.718Z,14.19
2022-10-05T06:38:11.868Z,14.63
2022-10-05T06:40:57.730Z,14.95
2022-10-05T06:43:40.132Z,14.92
2022-10-05T06:46:24.446Z,15.07
2022-10-05T06:49:21.649Z,14.98
2022-10-05T06:52:19.698Z,14.93
2022-10-05T06:55:02.687Z,14.99
2022-10-05T06:57:53.287Z,14.97
2022-10-05T07:00:25.020Z,14.94
2022-10-05T07:03:03.703Z,14.80
2022-10-05T07:05:49.145Z,14.81
2022-10-05T07:08:27.215Z,14.74
2022-10-05T07:11:05.668Z,14.87
2022-10-05T07:14:01.090Z,14.81
2022-10-05T07:16:39.499Z,15.09
2022-10-05T07:19:23.661Z,15.01
2022-10-05T07:22:00.304Z,14.84
2022-10-05T07:24:33.831Z,14.86
2022-10-05T07:27:10.516Z,14.79
2022-10-05T07:29:46.757Z,14.86
2022-10-05T07:32:33.966Z,14.92
2022-10-05T07:35:33.652Z,14.92
2022-10-05T07:38:12.967Z,14.90
2022-10-05T07:40:50.663Z,14.87
2022-10-05T07:43:57.620Z,14.90
2022-10-05T07:46:28.461Z,14.99
2022-10-05T07:49:04.373Z,14.99
2022-10-05T07:51:41.021Z,15.05
2022-10-05T07:54:20.473Z,15.07
2022-10-05T07:56:59.180Z,15.14
2022-10-05T07:59:35.804Z,15.07
2022-10-05T08:02:14.904Z,15.14
2022-10-05T08:04:53.323Z,15.18
2022-10-05T08:10:04.333Z,15.22
2022-10-05T08:12:44.309Z,15.19
2022-10-05T08:15:16.610Z,15.02
2022-10-05T08:17:53.457Z,14.97
2022-10-05T08:20:43.493Z,15.18
2022-10-05T08:23:23.100Z,15.09
2022-10-05T08:26:07.672Z,15.07
2022-10-05T08:28:40.330Z,14.94
2022-10-05T08:31:27.424Z,15.10
2022-10-05T08:34:02.338Z,15.09
2022-10-05T08:36:55.552Z,15.24
2022-10-05T08:39:29.392Z,15.19
2022-10-05T08:42:35.600Z,15.27
2022-10-05T08:46:04.948Z,15.05
2022-10-05T08:48:56.456Z,14.92
2022-10-05T08:51:48.611Z,14.98
2022-10-05T08:54:33.003Z,15.27
2022-10-05T08:57:49.557Z,15.16
2022-10-05T09:00:21.998Z,15.24
2022-10-05T09:03:11.620Z,15.22
2022-10-05T09:06:12.106Z,15.41
2022-10-05T09:08:57.825Z,15.39
2022-10-05T09:11:34.202Z,15.53
2022-10-05T09:14:25.772Z,15.47
2022-10-05T09:17:22.336Z,15.13
2022-10-05T09:20:11.137Z,15.67
2022-10-05T09:23:00.243Z,15.70
2022-10-05T09:25:44.111Z,15.74
2022-10-05T09:28:26.059Z,15.50
2022-10-05T09:31:07.955Z,15.60
2022-10-05T09:34:07.881Z,15.49
2022-10-05T09:37:22.236Z,15.71
2022-10-05T09:40:26.713Z,15.61
2022-10-05T09:43:23.318Z,15.70
2022-10-05T09:46:20.231Z,15.81
2022-10-05T09:49:18.861Z,15.50
2022-10-05T09:52:09.460Z,15.52
2022-10-05T09:55:09.235Z,15.43
2022-10-05T09:58:20.413Z,15.56
2022-10-05T10:01:09.987Z,15.66
2022-10-05T10:04:10.053Z,15.61
2022-10-05T10:07:10.546Z,15.63
2022-10-05T10:09:52.863Z,15.54
2022-10-05T10:12:35.971Z,15.57
2022-10-05T10:15:25.748Z,15.56
2022-10-05T10:18:13.124Z,15.54
2022-10-05T10:20:58.999Z,15.57
2022-10-05T10:23:55.083Z,15.67
2022-10-05T10:26:52.029Z,15.56
2022-10-05T10:29:39.719Z,15.74
2022-10-05T10:32:21.061Z,15.62
2022-10-05T10:35:20.034Z,15.61
2022-10-05T10:38:32.285Z,15.78
2022-10-05T10:41:23.276Z,15.75
2022-10-05T10:44:30.882Z,15.67
2022-10-05T10:47:33.286Z,15.76
2022-10-05T10:50:43.509Z,15.61
2022-10-05T10:53:30.949Z,15.68
2022-10-05T10:56:19.233Z,15.57
2022-10-05T10:59:14.234Z,15.71
2022-10-05T11:02:03.255Z,15.63
2022-10-05T11:04:57.393Z,15.66
2022-10-05T11:07:51.396Z,15.79
2022-10-05T11:10:34.355Z,15.65
2022-10-05T11:13:41.104Z,15.69
2022-10-05T11:16:33.283Z,15.19
2022-10-05T11:19:24.871Z,15.76
2022-10-05T11:22:26.646Z,15.78
2022-10-05T11:25:34.310Z,15.61
2022-10-05T11:28:42.220Z,15.59
2022-10-05T11:31:47.943Z,15.55
2022-10-05T11:34:53.235Z,15.73
2022-10-05T11:37:46.658Z,15.74
2022-10-05T11:40:43.343Z,15.76
2022-10-05T11:43:44.301Z,15.70
2022-10-05T11:46:20.860Z,15.95
2022-10-05T11:49:06.967Z,15.71
2022-10-05T11:51:47.310Z,15.83
2022-10-05T11:55:09.983Z,15.72
2022-10-05T11:57:49.100Z,15.94
2022-10-05T12:00:20.984Z,15.98
2022-10-05T12:03:33.728Z,15.99
2022-10-05T12:06:21.474Z,15.83
2022-10-05T12:09:04.105Z,16.00
2022-10-05T12:11:45.332Z,15.77
2022-10-05T12:14:22.100Z,15.88
2022-10-05T12:16:58.989Z,15.91
2022-10-05T12:19:36.852Z,15.88
2022-10-05T12:22:15.586Z,15.80
2022-10-05T12:25:04.596Z,15.80
2022-10-05T12:27:39.239Z,15.99
2022-10-05T12:30:15.905Z,16.24
2022-10-05T12:33:02.169Z,16.15
2022-10-05T12:35:48.274Z,16.19
2022-10-05T12:38:28.515Z,16.10
2022-10-05T12:41:09.011Z,16.10
2022-10-05T12:43:48.092Z,16.00
2022-10-05T12:46:26.557Z,16.02
2022-10-05T12:49:11.890Z,16.07
2022-10-05T12:51:45.487Z,16.01
2022-10-05T12:54:23.593Z,16.05
2022-10-05T12:56:56.185Z,15.99
2022-10-05T12:59:36.218Z,16.17
2022-10-05T13:02:19.679Z,16.17
2022-10-05T13:04:57.025Z,16.09
2022-10-05T13:07:46.315Z,16.32
2022-10-05T13:10:28.877Z,16.15
2022-10-05T13:13:16.215Z,16.02
2022-10-05T13:15:52.661Z,16.10
2022-10-05T13:18:30.949Z,16.15
2022-10-05T13:21:07.363Z,16.19
2022-10-05T13:23:47.265Z,16.34
2022-10-05T13:26:24.763Z,16.28
2022-10-05T13:28:59.417Z,16.22
2022-10-05T13:31:33.093Z,16.34
2022-10-05T13:34:16.107Z,16.19
2022-10-05T13:36:50.326Z,16.37
2022-10-05T13:39:27.184Z,16.26
2022-10-05T13:42:05.860Z,16.19
2022-10-05T13:44:43.949Z,16.45
2022-10-05T13:47:21.072Z,16.43
2022-10-05T13:49:54.908Z,16.55
2022-10-05T13:52:45.606Z,16.43
2022-10-05T13:55:28.136Z,16.50
2022-10-05T13:58:05.926Z,16.54
2022-10-05T14:00:46.184Z,16.43
2022-10-05T14:03:32.369Z,16.56
2022-10-05T14:06:12.123Z,16.41
2022-10-05T14:08:49.713Z,16.50
2022-10-05T14:11:28.284Z,16.58
2022-10-05T14:14:05.743Z,16.55
2022-10-05T14:16:49.444Z,16.57
2022-10-05T14:19:26.881Z,16.57
2022-10-05T14:22:01.604Z,16.49
2022-10-05T14:24:47.655Z,16.58
2022-10-05T14:27:24.715Z,16.58
2022-10-05T14:29:57.851Z,16.54
2022-10-05T14:32:30.905Z,16.50
2022-10-05T14:35:13.987Z,16.66
2022-10-05T14:37:47.854Z,16.56
2022-10-05T14:40:27.311Z,16.78
2022-10-05T14:42:58.577Z,16.90
2022-10-05T14:45:30.119Z,16.87
2022-10-05T14:48:11.600Z,16.84
2022-10-05T14:50:55.107Z,16.80
2022-10-05T14:53:24.963Z,16.66
2022-10-05T14:56:17.161Z,16.65
2022-10-05T14:59:15.017Z,16.80
2022-10-05T15:01:54.002Z,16.69
2022-10-05T15:04:37.426Z,16.56
2022-10-05T15:07:21.969Z,16.68
2022-10-05T15:10:06.392Z,16.57
2022-10-05T15:12:40.810Z,16.69
2022-10-05T15:15:28.029Z,16.64
2022-10-05T15:18:01.447Z,16.54
2022-10-05T15:20:38.621Z,16.19
2022-10-05T15:23:24.536Z,16.69
2022-10-05T15:26:10.698Z,16.49
2022-10-05T15:28:48.520Z,16.69
2022-10-05T15:31:30.015Z,16.56
2022-10-05T15:34:04.247Z,16.49
2022-10-05T15:36:44.554Z,16.65
2022-10-05T15:39:22.110Z,16.67
2022-10-05T15:42:00.781Z,16.50
2022-10-05T15:44:42.434Z,16.35
2022-10-05T15:47:20.101Z,16.45
2022-10-05T15:49:59.334Z,16.58
2022-10-05T15:52:34.341Z,16.54
2022-10-05T15:55:40.033Z,16.43
2022-10-05T15:58:46.297Z,16.53
2022-10-05T16:01:20.358Z,16.60
2022-10-05T16:04:02.153Z,16.44
2022-10-05T16:06:56.899Z,15.95
2022-10-05T16:09:49.844Z,16.43
2022-10-05T16:12:31.262Z,16.23
2022-10-05T16:15:16.843Z,16.32
2022-10-05T16:18:09.643Z,15.82
2022-10-05T16:20:50.194Z,16.45
2022-10-05T16:23:35.283Z,16.33
2022-10-05T16:26:13.368Z,16.38
2022-10-05T16:28:54.335Z,16.44
2022-10-05T16:31:34.714Z,16.25
2022-10-05T16:34:17.954Z,16.53
2022-10-05T16:36:56.248Z,16.32
2022-10-05T16:39:39.449Z,16.50
2022-10-05T16:42:14.000Z,16.46
2022-10-05T16:44:48.416Z,16.29
2022-10-05T16:47:35.869Z,16.32
2022-10-05T16:50:21.800Z,16.14
2022-10-05T16:52:58.023Z,16.38
2022-10-05T16:55:36.271Z,16.37
2022-10-05T16:58:20.573Z,16.31
2022-10-05T17:01:19.377Z,15.68
2022-10-05T17:04:04.282Z,16.32
2022-10-05T17:07:07.636Z,16.49
2022-10-05T17:09:59.411Z,16.11
2022-10-05T17:12:38.835Z,16.36
2022-10-05T17:15:29.337Z,16.30
2022-10-05T17:18:27.465Z,16.12
2022-10-05T17:23:54.756Z,16.34
2022-10-05T17:26:56.045Z,16.17
2022-10-05T17:29:32.347Z,15.87
2022-10-05T17:32:12.747Z,16.14
2022-10-05T17:35:18.495Z,16.11
2022-10-05T17:38:14.485Z,16.35
2022-10-05T17:41:16.441Z,16.23
2022-10-05T17:44:19.589Z,16.07
2022-10-05T17:46:52.005Z,16.23
2022-10-05T17:50:15.280Z,16.19
2022-10-05T17:53:02.926Z,16.20
2022-10-05T17:55:47.071Z,16.24
2022-10-05T17:59:02.755Z,16.27
2022-10-05T18:01:37.196Z,16.24
2022-10-05T18:04:42.441Z,16.27
2022-10-05T18:07:26.715Z,16.13
2022-10-05T18:10:02.528Z,16.19
2022-10-05T18:12:45.562Z,16.38
2022-10-05T18:15:23.350Z,16.29
2022-10-05T18:17:56.226Z,16.23
2022-10-05T18:20:33.438Z,16.14
2022-10-05T18:23:30.361Z,16.11
2022-10-05T18:26:06.956Z,16.19
2022-10-05T18:28:49.202Z,16.16
2022-10-05T18:31:27.693Z,16.12
2022-10-05T18:34:07.946Z,16.23
2022-10-05T18:36:55.994Z,16.09
2022-10-05T18:39:46.575Z,15.91
2022-10-05T18:42:25.572Z,16.12
2022-10-05T18:44:58.823Z,16.21
2022-10-05T18:47:38.567Z,16.09
2022-10-05T18:50:21.435Z,16.29
2022-10-05T18:53:10.870Z,16.14
2022-10-05T18:55:45.453Z,16.18
2022-10-05T18:58:22.312Z,16.12
2022-10-05T19:01:14.763Z,16.17
2022-10-05T19:04:05.662Z,15.97
2022-10-05T19:06:43.451Z,15.75
2022-10-05T19:09:26.358Z,15.46
2022-10-05T19:12:02.367Z,15.12
2022-10-05T19:14:41.884Z,14.90
2022-10-05T19:17:26.509Z,14.79
2022-10-05T19:20:18.138Z,15.00
2022-10-05T19:23:09.467Z,14.94
2022-10-05T19:25:49.435Z,14.88
2022-10-05T19:28:27.678Z,14.95
2022-10-05T19:31:09.977Z,14.96
2022-10-05T19:33:57.222Z,14.93
2022-10-05T19:36:46.624Z,14.96
2022-10-05T19:39:29.897Z,14.82
2022-10-05T19:42:21.174Z,14.72
2022-10-05T19:45:00.290Z,14.84
2022-10-05T19:47:42.359Z,15.04
2022-10-05T19:50:27.421Z,14.93
2022-10-05T19:53:08.306Z,14.74
2022-10-05T19:55:41.753Z,14.63
2022-10-05T19:58:24.571Z,14.73
2022-10-05T20:00:58.504Z,14.24
2022-10-05T20:03:29.630Z,15.01
2022-10-05T20:06:00.005Z,14.92
2022-10-05T20:08:39.490Z,14.69
2022-10-05T20:11:11.646Z,14.77
2022-10-05T20:13:44.798Z,14.34
2022-10-05T20:16:45.144Z,14.93
2022-10-05T20:19:55.214Z,15.12
2022-10-05T20:22:32.816Z,14.96
2022-10-05T20:25:03.752Z,15.01
2022-10-05T20:27:47.148Z,14.80
2022-10-05T20:30:21.297Z,14.74
2022-10-05T20:32:53.250Z,14.28
2022-10-05T20:35:23.103Z,14.17
2022-10-05T20:37:52.122Z,14.16
2022-10-05T20:40:21.446Z,13.83
2022-10-05T20:42:50.387Z,13.79
2022-10-05T20:45:20.497Z,13.82
2022-10-05T20:47:51.056Z,13.11
2022-10-05T20:50:21.179Z,13.83
2022-10-05T20:52:50.584Z,13.74
2022-10-05T20:55:20.819Z,13.57
2022-10-05T20:57:49.582Z,13.67
2022-10-05T21:00:18.615Z,13.62
2022-10-05T21:02:49.408Z,13.62
2022-10-05T21:05:19.096Z,13.59
2022-10-05T21:07:48.315Z,13.74
2022-10-05T21:10:19.705Z,13.67
2022-10-05T21:12:48.591Z,13.75
2022-10-05T21:15:17.552Z,13.79
2022-10-05T21:17:46.551Z,13.80
2022-10-05T21:20:16.994Z,13.83
2022-10-05T21:22:45.738Z,13.86
2022-10-05T21:25:14.571Z,13.81
2022-10-05T21:27:43.240Z,13.62
2022-10-05T21:30:12.816Z,13.66
2022-10-05T21:32:44.675Z,13.65
2022-10-05T21:35:13.686Z,13.68
2022-10-05T21:37:44.013Z,13.83
2022-10-05T21:40:12.698Z,13.84
2022-10-05T21:42:41.384Z,13.29
2022-10-05T21:45:11.340Z,13.85
2022-10-05T21:47:42.923Z,13.66
2022-10-05T21:50:11.918Z,13.82
2022-10-05T21:52:44.588Z,13.78
2022-10-05T21:55:13.407Z,13.91
2022-10-05T21:57:43.391Z,13.83
2022-10-05T22:00:14.087Z,13.81
2022-10-05T22:02:43.161Z,13.67
2022-10-05T22:05:11.991Z,13.69
2022-10-05T22:07:40.798Z,13.65
2022-10-05T22:10:11.182Z,13.99
2022-10-05T22:12:43.584Z,13.87
2022-10-05T22:15:12.498Z,14.12
2022-10-05T22:17:41.950Z,14.14
2022-10-05T22:20:15.546Z,13.25
2022-10-05T22:22:44.737Z,14.00
2022-10-05T22:25:15.975Z,14.09
2022-10-05T22:27:45.313Z,14.08
2022-10-05T22:30:15.701Z,14.04
2022-10-05T22:32:45.552Z,13.95
2022-10-05T22:35:14.425Z,14.15
2022-10-05T22:37:43.459Z,14.15
2022-10-05T22:40:15.944Z,14.05
2022-10-05T22:42:44.568Z,14.21
2022-10-05T22:45:14.319Z,13.82
2022-10-05T22:47:43.061Z,13.99
2022-10-05T22:50:11.797Z,14.02
2022-10-05T22:52:42.442Z,14.15
2022-10-05T22:55:11.605Z,14.18
2022-10-05T22:57:42.799Z,14.20
2022-10-05T23:00:13.482Z,14.29
2022-10-05T23:02:43.651Z,14.19
2022-10-05T23:05:17.125Z,14.30
2022-10-05T23:07:47.711Z,14.28
2022-10-05T23:10:18.954Z,14.32
2022-10-05T23:13:00.806Z,14.25
2022-10-05T23:15:29.872Z,14.11
2022-10-05T23:17:59.256Z,14.24
2022-10-05T23:20:28.362Z,13.96
2022-10-05T23:22:56.982Z,14.19
2022-10-05T23:25:25.657Z,14.07
2022-10-05T23:28:02.865Z,14.16
2022-10-05T23:30:31.560Z,14.17
2022-10-05T23:33:00.306Z,13.96
2022-10-05T23:35:29.046Z,13.96
2022-10-05T23:37:57.659Z,13.93
2022-10-05T23:40:26.654Z,13.87
2022-10-05T23:42:56.156Z,13.75
2022-10-05T23:45:28.735Z,13.96
2022-10-05T23:48:00.709Z,13.95
2022-10-05T23:50:29.713Z,13.90
2022-10-05T23:52:58.386Z,14.11
2022-10-05T23:55:27.877Z,13.90
2022-10-05T23:57:56.547Z,14.17
